Time;durP1;ratioP1;P1;durP2;ratioP2;P2;SDS_P1;SDS_P2;PMS_P1;PMS_P2;Temp;Humidity;BMP_temperature;BMP_pressure;BME280_temperature;BME280_humidity;BME280_pressure;Samples;Min_cycle;Max_cycle;Signal;HPM_P1;HPM_P2
2021/06/02 00:02:15;;;;;;;13.57;12.43;;;14.30;99.90;;;;;;5071146;28;20048;-67
2021/06/02 00:04:43;;;;;;;13.93;12.80;;;14.20;99.90;;;;;;5071966;28;20097;-67
2021/06/02 00:07:15;;;;;;;13.30;12.27;;;14.20;99.90;;;;;;5071671;28;20060;-67
2021/06/02 00:09:42;;;;;;;13.70;12.68;;;14.20;99.90;;;;;;5053143;28;20057;-67
2021/06/02 00:12:11;;;;;;;13.60;12.45;;;14.10;99.90;;;;;;5054135;28;20049;-67
2021/06/02 00:14:39;;;;;;;12.95;11.95;;;14.10;99.90;;;;;;5071534;28;20052;-67
2021/06/02 00:17:08;;;;;;;13.80;12.70;;;14.00;99.90;;;;;;5064429;28;20052;-67
2021/06/02 00:19:36;;;;;;;12.93;11.82;;;14.00;99.90;;;;;;5072327;28;20106;-67
2021/06/02 00:22:05;;;;;;;13.80;12.60;;;13.90;99.90;;;;;;5072657;28;20078;-66
2021/06/02 00:24:34;;;;;;;13.70;12.65;;;13.90;99.90;;;;;;5072434;28;20056;-67
2021/06/02 00:27:05;;;;;;;13.48;12.38;;;13.80;99.90;;;;;;5072560;28;20084;-67
2021/06/02 00:29:34;;;;;;;13.50;12.32;;;13.80;99.90;;;;;;5070057;28;20048;-67
2021/06/02 00:32:03;;;;;;;15.23;13.90;;;13.70;99.90;;;;;;5072863;28;20437;-67
2021/06/02 00:34:31;;;;;;;16.60;15.10;;;13.70;99.90;;;;;;5071156;28;20059;-67
2021/06/02 00:37:01;;;;;;;14.18;12.98;;;13.60;99.90;;;;;;5071047;28;20044;-67
2021/06/02 00:39:32;;;;;;;13.60;12.52;;;13.60;99.90;;;;;;5071392;28;20495;-67
2021/06/02 00:42:01;;;;;;;13.43;12.23;;;13.50;99.90;;;;;;5068646;28;20473;-66
2021/06/02 00:44:28;;;;;;;13.18;12.07;;;13.50;99.90;;;;;;5070454;28;20499;-67
2021/06/02 00:47:00;;;;;;;13.38;12.38;;;13.50;99.90;;;;;;5069581;28;20053;-67
2021/06/02 00:49:28;;;;;;;16.10;12.35;;;13.50;99.90;;;;;;5071793;28;20495;-67
2021/06/02 00:52:01;;;;;;;13.45;12.27;;;13.50;99.90;;;;;;5069589;28;20467;-67
2021/06/02 00:54:31;;;;;;;13.75;12.45;;;13.50;99.90;;;;;;5072144;28;20465;-66
2021/06/02 00:57:11;;;;;;;13.50;12.40;;;13.40;99.90;;;;;;5081693;28;20048;-66
2021/06/02 00:59:46;;;;;;;13.20;12.13;;;13.40;99.90;;;;;;5071696;28;20042;-66
2021/06/02 01:02:20;;;;;;;13.35;12.10;;;13.40;99.90;;;;;;5069364;28;20060;-67
2021/06/02 01:04:50;;;;;;;13.43;12.43;;;13.40;99.90;;;;;;5070622;28;20040;-67
2021/06/02 01:07:22;;;;;;;12.70;11.80;;;13.40;99.90;;;;;;5068432;28;20048;-67
2021/06/02 01:09:52;;;;;;;13.90;12.70;;;13.40;99.90;;;;;;5070305;28;20048;-67
2021/06/02 01:12:22;;;;;;;13.45;12.32;;;13.40;99.90;;;;;;5068246;28;20102;-67
2021/06/02 01:14:54;;;;;;;13.00;12.00;;;13.40;99.90;;;;;;5071428;28;20122;-67
2021/06/02 01:17:26;;;;;;;12.80;11.90;;;13.40;99.90;;;;;;5069038;28;20098;-67
2021/06/02 01:19:57;;;;;;;13.30;12.10;;;13.50;99.90;;;;;;5071788;28;20127;-66
2021/06/02 01:22:28;;;;;;;12.60;11.70;;;13.50;99.90;;;;;;5071045;28;20404;-67
2021/06/02 01:24:56;;;;;;;13.00;11.88;;;13.50;99.90;;;;;;5064213;28;20044;-67
2021/06/02 01:27:24;;;;;;;12.52;11.52;;;13.50;99.90;;;;;;5069623;28;20052;-66
2021/06/02 01:29:51;;;;;;;12.57;11.43;;;13.50;99.90;;;;;;5068363;28;20569;-67
2021/06/02 01:32:31;;;;;;;12.25;11.35;;;13.50;99.90;;;;;;5070271;28;20106;-67
2021/06/02 01:35:05;;;;;;;13.52;12.43;;;13.50;99.90;;;;;;5064839;28;20144;-67
2021/06/02 01:37:42;;;;;;;12.75;11.65;;;13.50;99.90;;;;;;5050196;28;20423;-67
2021/06/02 01:40:13;;;;;;;12.35;11.40;;;13.50;99.90;;;;;;5064930;28;20053;-67
2021/06/02 01:43:15;;;;;;;12.82;11.73;;;13.50;99.90;;;;;;5070393;28;20564;-66
2021/06/02 01:46:16;;;;;;;13.15;12.00;;;13.50;99.90;;;;;;5060214;28;20472;-66
2021/06/02 01:48:56;;;;;;;12.82;11.82;;;13.40;99.90;;;;;;5070019;28;20084;-67
2021/06/02 01:51:35;;;;;;;12.27;11.18;;;13.40;99.90;;;;;;5068168;28;20044;-67
2021/06/02 01:54:10;;;;;;;12.70;11.60;;;13.40;99.90;;;;;;5070316;28;20068;-66
2021/06/02 01:57:08;;;;;;;12.55;11.55;;;13.30;99.90;;;;;;5070591;28;20095;-67
2021/06/02 02:00:03;;;;;;;12.68;11.52;;;13.30;99.90;;;;;;5068097;28;20044;-66
2021/06/02 02:03:18;;;;;;;12.45;11.45;;;13.20;99.90;;;;;;5068744;28;20051;-67
2021/06/02 02:06:29;;;;;;;12.02;11.02;;;13.10;99.90;;;;;;5068529;28;20044;-67
2021/06/02 02:09:04;;;;;;;13.00;11.90;;;13.00;99.90;;;;;;5062592;28;20151;-67
2021/06/02 02:11:35;;;;;;;12.23;11.23;;;13.00;99.90;;;;;;5065848;28;20044;-67
2021/06/02 02:14:28;;;;;;;12.50;11.50;;;13.00;99.90;;;;;;5067595;28;20070;-66
2021/06/02 02:17:20;;;;;;;12.35;11.35;;;12.90;99.90;;;;;;5068244;28;20056;-67
2021/06/02 02:20:15;;;;;;;12.40;11.40;;;12.80;99.90;;;;;;5057122;28;20080;-66
2021/06/02 02:23:16;;;;;;;12.60;11.40;;;12.80;99.90;;;;;;5056625;28;20084;-66
2021/06/02 02:25:56;;;;;;;12.40;11.40;;;12.80;99.90;;;;;;5068121;28;20188;-67
2021/06/02 02:28:23;;;;;;;12.50;11.60;;;12.70;99.90;;;;;;5063490;28;20080;-67
2021/06/02 02:31:28;;;;;;;12.43;11.43;;;12.70;99.90;;;;;;5078237;28;20649;-67
2021/06/02 02:34:08;;;;;;;12.10;11.18;;;12.70;99.90;;;;;;5070303;28;20483;-66
2021/06/02 02:36:42;;;;;;;12.30;11.18;;;12.60;99.90;;;;;;5057282;28;20060;-67
2021/06/02 02:39:29;;;;;;;13.02;11.63;;;12.60;99.90;;;;;;5055155;28;20083;-66
2021/06/02 02:42:23;;;;;;;12.00;11.00;;;12.60;99.90;;;;;;5063914;28;20075;-66
2021/06/02 02:45:09;;;;;;;12.50;11.50;;;12.60;99.90;;;;;;5060487;28;20613;-67
2021/06/02 02:48:29;;;;;;;12.40;11.40;;;12.50;99.90;;;;;;5069996;28;20083;-66
2021/06/02 02:51:07;;;;;;;11.82;10.90;;;12.50;99.90;;;;;;5047243;28;20495;-67
2021/06/02 02:54:12;;;;;;;12.82;11.73;;;12.50;99.90;;;;;;5069787;28;20557;-67
2021/06/02 02:57:01;;;;;;;12.55;11.45;;;12.50;99.90;;;;;;5031901;28;20050;-66
2021/06/02 02:59:44;;;;;;;12.10;11.07;;;12.50;99.90;;;;;;5014128;28;20088;-67
2021/06/02 03:02:36;;;;;;;12.40;11.40;;;12.50;99.90;;;;;;5029994;28;20247;-66
2021/06/02 03:05:11;;;;;;;12.90;11.70;;;12.40;99.90;;;;;;5031761;28;20412;-66
2021/06/02 03:07:45;;;;;;;12.95;11.70;;;12.40;99.90;;;;;;5029751;28;20319;-66
2021/06/02 03:10:18;;;;;;;12.88;11.70;;;12.40;99.90;;;;;;5014543;28;20037;-66
2021/06/02 03:13:08;;;;;;;12.98;11.88;;;12.40;99.90;;;;;;5030220;28;20095;-67
2021/06/02 03:15:47;;;;;;;12.15;11.20;;;12.40;99.90;;;;;;5029003;28;20050;-67
2021/06/02 03:18:39;;;;;;;12.07;11.07;;;12.40;99.90;;;;;;5031590;28;20413;-66
2021/06/02 03:21:29;;;;;;;12.30;11.23;;;12.40;99.90;;;;;;5028867;28;20440;-66
2021/06/02 03:24:30;;;;;;;12.73;11.52;;;12.40;99.90;;;;;;5030942;28;20099;-67
2021/06/02 03:27:08;;;;;;;12.07;11.07;;;12.30;99.90;;;;;;5030683;28;20068;-67
2021/06/02 03:30:21;;;;;;;12.20;11.00;;;12.30;99.90;;;;;;5030270;28;20053;-66
2021/06/02 03:33:07;;;;;;;12.10;11.07;;;12.30;99.90;;;;;;5071836;28;20048;-66
2021/06/02 03:35:50;;;;;;;11.80;10.77;;;12.30;99.90;;;;;;5060184;28;20060;-67
2021/06/02 03:38:26;;;;;;;11.65;10.65;;;12.30;99.90;;;;;;5067733;28;20064;-67
2021/06/02 03:41:07;;;;;;;11.38;10.27;;;12.40;99.90;;;;;;5072282;28;20261;-67
2021/06/02 03:43:41;;;;;;;11.43;10.50;;;12.40;99.90;;;;;;5072258;28;20568;-67
2021/06/02 03:46:32;;;;;;;12.70;11.50;;;12.40;99.90;;;;;;5066558;28;20072;-67
2021/06/02 03:49:44;;;;;;;12.32;11.13;;;12.40;99.90;;;;;;5070669;28;20056;-67
2021/06/02 03:52:27;;;;;;;12.63;11.52;;;12.40;99.90;;;;;;5028618;28;20119;-67
2021/06/02 03:55:05;;;;;;;12.40;11.30;;;12.40;99.90;;;;;;5029575;28;20045;-67
2021/06/02 03:57:42;;;;;;;11.63;10.70;;;12.40;99.90;;;;;;5029381;28;20041;-67
2021/06/02 04:00:11;;;;;;;12.18;10.98;;;12.40;99.90;;;;;;5030218;28;20053;-67
2021/06/02 04:03:09;;;;;;;12.43;11.38;;;12.50;99.90;;;;;;5028915;28;20423;-67
2021/06/02 04:06:00;;;;;;;12.15;11.13;;;12.50;99.90;;;;;;5027875;28;20080;-67
2021/06/02 04:08:48;;;;;;;13.10;11.80;;;12.50;99.90;;;;;;5029554;28;20088;-67
2021/06/02 04:11:34;;;;;;;12.38;11.27;;;12.50;99.90;;;;;;5011412;28;20037;-67
2021/06/02 04:14:05;;;;;;;12.98;11.77;;;12.60;99.90;;;;;;5029890;28;20057;-67
2021/06/02 04:16:36;;;;;;;13.98;12.35;;;12.70;99.90;;;;;;5029320;28;20125;-67
2021/06/02 04:19:05;;;;;;;14.02;11.80;;;12.70;99.90;;;;;;5028162;28;20227;-67
2021/06/02 04:21:34;;;;;;;12.88;11.68;;;12.80;99.90;;;;;;5029297;28;20045;-67
2021/06/02 04:24:08;;;;;;;12.30;11.30;;;12.80;99.90;;;;;;5027759;28;20539;-67
2021/06/02 04:26:36;;;;;;;12.25;11.25;;;12.80;99.90;;;;;;5047585;28;20502;-67
2021/06/02 04:29:18;;;;;;;12.30;11.20;;;12.90;99.90;;;;;;5064303;28;20107;-67
2021/06/02 04:32:06;;;;;;;12.02;10.82;;;12.90;99.90;;;;;;5066765;28;20513;-67
2021/06/02 04:34:34;;;;;;;12.93;11.77;;;13.00;99.90;;;;;;5068092;28;20479;-67
2021/06/02 04:37:04;;;;;;;12.98;11.77;;;13.00;99.90;;;;;;5068589;28;20074;-67
2021/06/02 04:39:34;;;;;;;13.23;11.75;;;13.00;99.90;;;;;;5071448;28;20037;-67
2021/06/02 04:42:03;;;;;;;12.77;11.55;;;13.10;99.90;;;;;;5070954;28;20055;-67
2021/06/02 04:44:32;;;;;;;15.27;12.18;;;13.10;99.90;;;;;;5069692;28;20052;-67
2021/06/02 04:47:02;;;;;;;12.73;11.48;;;13.10;99.90;;;;;;5059268;28;20110;-67
2021/06/02 04:49:39;;;;;;;12.18;11.18;;;13.20;99.90;;;;;;5069315;28;20056;-67
2021/06/02 04:52:25;;;;;;;12.52;11.43;;;13.20;99.90;;;;;;5067644;28;20098;-67
2021/06/02 04:55:20;;;;;;;13.05;12.02;;;13.20;99.90;;;;;;5072085;28;20102;-67
2021/06/02 04:57:47;;;;;;;12.98;11.77;;;13.20;99.90;;;;;;5067175;28;20063;-67
2021/06/02 05:00:50;;;;;;;13.23;11.95;;;13.30;99.90;;;;;;5071983;28;20503;-67
2021/06/02 05:03:36;;;;;;;12.73;11.52;;;13.30;99.90;;;;;;5069222;28;20090;-67
2021/06/02 05:06:37;;;;;;;12.57;11.38;;;13.40;99.90;;;;;;5052564;28;20062;-67
2021/06/02 05:09:26;;;;;;;13.25;11.95;;;13.40;99.90;;;;;;5083510;28;20094;-67
2021/06/02 05:12:15;;;;;;;12.80;11.27;;;13.50;99.90;;;;;;5070387;28;20437;-67
2021/06/02 05:15:20;;;;;;;15.80;14.25;;;13.50;99.90;;;;;;5066456;28;20044;-67
2021/06/02 05:18:26;;;;;;;16.25;14.73;;;13.50;99.90;;;;;;5070856;28;20072;-68
2021/06/02 05:24:30;;;;;;;12.82;11.63;;;13.70;99.90;;;;;;5064804;28;20048;-67
2021/06/02 05:27:22;;;;;;;13.18;11.88;;;13.70;99.90;;;;;;5058233;28;20067;-67
2021/06/02 05:30:10;;;;;;;13.70;12.50;;;13.80;99.90;;;;;;5070894;28;20048;-67
2021/06/02 05:33:12;;;;;;;15.23;13.65;;;13.80;99.90;;;;;;5063252;28;20045;-68
2021/06/02 05:35:52;;;;;;;13.60;12.25;;;13.80;99.90;;;;;;5070349;28;20132;-67
2021/06/02 05:38:50;;;;;;;12.70;11.65;;;13.80;99.90;;;;;;5071094;28;20136;-67
2021/06/02 05:41:41;;;;;;;11.70;10.70;;;13.90;99.90;;;;;;5053504;28;20124;-67
2021/06/02 05:44:48;;;;;;;12.70;11.57;;;14.10;99.90;;;;;;5051019;28;20057;-67
2021/06/02 05:47:52;;;;;;;12.93;11.63;;;14.10;99.90;;;;;;5055265;28;20505;-67
2021/06/02 05:51:06;;;;;;;12.52;11.43;;;14.20;99.90;;;;;;5057049;28;20166;-67
2021/06/02 05:54:21;;;;;;;12.57;11.45;;;14.30;99.90;;;;;;5027996;28;20091;-67
2021/06/02 05:57:25;;;;;;;12.38;11.10;;;14.40;99.90;;;;;;5014495;28;20033;-67
2021/06/02 06:00:30;;;;;;;12.18;11.27;;;14.50;99.90;;;;;;5028329;28;20069;-67
2021/06/02 06:03:25;;;;;;;13.68;12.38;;;14.70;99.90;;;;;;5028427;28;20427;-67
2021/06/02 06:06:07;;;;;;;12.85;11.65;;;14.80;99.90;;;;;;5018867;28;20046;-66
2021/06/02 06:09:05;;;;;;;13.27;12.10;;;15.00;99.90;;;;;;5024933;28;20091;-66
2021/06/02 06:11:59;;;;;;;13.00;11.77;;;15.10;99.90;;;;;;5028094;28;20133;-66
2021/06/02 06:14:40;;;;;;;13.38;12.18;;;15.20;99.90;;;;;;5028511;28;20117;-66
2021/06/02 06:17:34;;;;;;;14.13;12.77;;;15.30;99.90;;;;;;5028398;28;20049;-66
2021/06/02 06:20:26;;;;;;;13.68;12.25;;;15.40;99.90;;;;;;5029045;28;20052;-66
2021/06/02 06:23:14;;;;;;;13.07;11.98;;;15.50;99.90;;;;;;5027720;28;20427;-66
2021/06/02 06:26:00;;;;;;;13.93;12.73;;;15.50;99.90;;;;;;5059978;28;20135;-67
2021/06/02 06:28:49;;;;;;;14.88;13.50;;;15.60;99.90;;;;;;5057413;28;20065;-67
2021/06/02 06:31:21;;;;;;;13.02;11.82;;;15.70;99.90;;;;;;5059809;28;20059;-67
2021/06/02 06:33:51;;;;;;;12.57;11.38;;;15.70;99.90;;;;;;5065020;28;20048;-67
2021/06/02 06:36:23;;;;;;;14.13;12.13;;;15.80;99.90;;;;;;5086401;28;20106;-67
2021/06/02 06:39:18;;;;;;;14.17;12.67;;;15.80;99.90;;;;;;5064969;28;20070;-67
2021/06/02 06:41:48;;;;;;;12.38;11.38;;;15.80;99.90;;;;;;5073826;28;20283;-67
2021/06/02 06:44:18;;;;;;;12.82;11.63;;;15.90;99.90;;;;;;5061188;28;20110;-67
2021/06/02 06:46:47;;;;;;;12.65;11.07;;;15.90;99.90;;;;;;5073885;28;20053;-67
2021/06/02 06:49:17;;;;;;;13.38;12.13;;;16.00;99.90;;;;;;5074592;28;20529;-67
2021/06/02 06:51:52;;;;;;;13.00;11.82;;;16.10;99.90;;;;;;5072912;28;20080;-67
2021/06/02 06:54:23;;;;;;;12.43;11.32;;;16.30;99.90;;;;;;5061215;28;20045;-67
2021/06/02 06:56:52;;;;;;;12.40;11.10;;;16.40;99.90;;;;;;5072383;28;20147;-67
2021/06/02 06:59:20;;;;;;;11.98;10.70;;;16.50;99.90;;;;;;5072761;28;20127;-67
2021/06/02 07:01:49;;;;;;;11.75;10.65;;;16.60;99.90;;;;;;5065652;28;20099;-67
2021/06/02 07:04:17;;;;;;;12.32;11.02;;;16.60;99.90;;;;;;5076461;28;20052;-67
2021/06/02 07:06:46;;;;;;;12.10;11.02;;;16.60;99.90;;;;;;5065910;28;20045;-67
2021/06/02 07:09:13;;;;;;;12.18;10.93;;;16.70;99.90;;;;;;5053842;28;20548;-67
2021/06/02 07:11:43;;;;;;;11.43;10.50;;;16.70;99.90;;;;;;5072237;28;20452;-67
2021/06/02 07:14:15;;;;;;;11.85;10.27;;;16.70;99.90;;;;;;5062736;28;20051;-67
2021/06/02 07:16:42;;;;;;;12.23;10.93;;;16.80;99.90;;;;;;5073434;28;20121;-67
2021/06/02 07:19:12;;;;;;;10.93;9.82;;;16.90;99.90;;;;;;5064057;28;20092;-67
2021/06/02 07:21:42;;;;;;;12.38;10.48;;;17.00;99.90;;;;;;5069628;28;20156;-67
2021/06/02 07:24:11;;;;;;;12.82;10.20;;;17.00;99.90;;;;;;5063850;28;20059;-67
2021/06/02 07:26:41;;;;;;;11.32;10.40;;;17.10;99.90;;;;;;5071903;28;20106;-67
2021/06/02 07:29:22;;;;;;;11.30;10.05;;;17.20;99.90;;;;;;5071823;28;20110;-67
2021/06/02 07:31:50;;;;;;;11.15;10.15;;;17.30;99.90;;;;;;5073319;28;20059;-67
2021/06/02 07:34:17;;;;;;;11.75;10.60;;;17.50;99.90;;;;;;5070630;28;20068;-67
2021/06/02 07:36:44;;;;;;;11.82;10.63;;;17.60;99.90;;;;;;5069728;28;20083;-67
2021/06/02 07:39:12;;;;;;;11.68;10.60;;;17.80;99.90;;;;;;5060407;28;20402;-67
2021/06/02 07:41:39;;;;;;;12.52;11.27;;;17.90;99.90;;;;;;5070389;28;20550;-67
2021/06/02 07:44:08;;;;;;;13.40;11.23;;;18.00;99.90;;;;;;5071556;28;20455;-67
2021/06/02 07:46:35;;;;;;;11.63;10.75;;;18.20;99.90;;;;;;5071208;28;20083;-67
2021/06/02 07:49:05;;;;;;;14.10;10.80;;;18.40;99.90;;;;;;5069689;28;20059;-67
2021/06/02 07:51:34;;;;;;;12.85;10.77;;;18.50;99.90;;;;;;5067197;28;20451;-67
2021/06/02 07:54:02;;;;;;;12.38;11.27;;;18.60;99.90;;;;;;5069208;28;20052;-67
2021/06/02 07:56:30;;;;;;;13.05;11.85;;;18.70;99.90;;;;;;5067260;28;20144;-67
2021/06/02 07:58:57;;;;;;;12.10;11.05;;;18.90;99.90;;;;;;5066803;28;20060;-67
2021/06/02 08:01:24;;;;;;;13.43;12.02;;;19.00;99.90;;;;;;5070624;28;20064;-66
2021/06/02 08:03:52;;;;;;;13.35;12.13;;;19.10;99.90;;;;;;5065784;28;20474;-66
2021/06/02 08:06:19;;;;;;;11.82;10.80;;;19.30;99.90;;;;;;5069100;28;20489;-67
2021/06/02 08:08:46;;;;;;;11.90;10.73;;;19.50;99.90;;;;;;5069593;28;20083;-66
2021/06/02 08:11:13;;;;;;;13.20;10.93;;;19.60;99.90;;;;;;5069936;28;20359;-66
2021/06/02 08:13:41;;;;;;;11.05;10.15;;;19.60;99.90;;;;;;5071117;28;20048;-67
2021/06/02 08:16:08;;;;;;;12.05;11.05;;;19.70;99.90;;;;;;5069904;28;20115;-67
2021/06/02 08:18:35;;;;;;;12.00;10.23;;;19.80;99.90;;;;;;5069528;28;20082;-67
2021/06/02 08:21:04;;;;;;;11.48;10.48;;;19.90;99.90;;;;;;5072162;28;20415;-67
2021/06/02 08:23:31;;;;;;;11.27;10.27;;;20.10;99.90;;;;;;5065442;28;20213;-67
2021/06/02 08:25:59;;;;;;;11.02;10.00;;;20.20;99.90;;;;;;5060359;28;20053;-66
2021/06/02 08:28:26;;;;;;;11.57;10.40;;;20.40;99.90;;;;;;5070749;28;20076;-66
2021/06/02 08:30:53;;;;;;;11.43;10.27;;;20.50;99.90;;;;;;5071551;28;20071;-67
2021/06/02 08:33:24;;;;;;;13.23;10.80;;;20.60;99.90;;;;;;5072527;28;20125;-71
2021/06/02 08:35:52;;;;;;;12.05;11.05;;;20.60;99.80;;;;;;5070797;28;20114;-68
2021/06/02 08:38:19;;;;;;;12.00;10.82;;;20.80;99.60;;;;;;5071653;28;20550;-68
2021/06/02 08:40:47;;;;;;;11.40;10.50;;;20.90;98.60;;;;;;5069755;28;20045;-68
2021/06/02 08:43:19;;;;;;;10.93;10.00;;;21.00;98.10;;;;;;5071376;28;20110;-68
2021/06/02 08:45:47;;;;;;;;;;;21.20;97.00;;;;;;5071110;28;20048;-68
2021/06/02 08:48:15;;;;;;;11.20;10.40;;;21.20;96.70;;;;;;5058596;28;19967;-68
2021/06/02 08:50:43;;;;;;;12.40;11.40;;;21.30;96.50;;;;;;5054491;28;20564;-68
2021/06/02 08:53:14;;;;;;;11.95;10.95;;;21.40;95.30;;;;;;5049332;28;20110;-67
2021/06/02 08:55:45;;;;;;;12.00;11.00;;;21.40;94.70;;;;;;5066134;28;20132;-67
2021/06/02 08:58:20;;;;;;;11.55;10.52;;;21.40;94.40;;;;;;5059676;28;20315;-67
2021/06/02 09:00:48;;;;;;;11.45;10.55;;;21.50;94.20;;;;;;5068836;28;20101;-68
2021/06/02 09:03:17;;;;;;;11.77;10.68;;;21.60;94.00;;;;;;5070685;28;20553;-67
2021/06/02 09:05:44;;;;;;;11.48;10.60;;;21.70;93.40;;;;;;5068701;28;20045;-68
2021/06/02 09:08:15;;;;;;;11.57;10.68;;;21.70;93.40;;;;;;5061223;28;20465;-68
2021/06/02 09:10:45;;;;;;;11.25;10.48;;;21.80;93.60;;;;;;5036146;28;20084;-68
2021/06/02 09:13:23;;;;;;;14.95;11.10;;;22.00;93.60;;;;;;5068350;28;20106;-68
2021/06/02 09:15:52;;;;;;;11.45;10.55;;;22.10;92.80;;;;;;5070830;28;20132;-68
2021/06/02 09:18:22;;;;;;;12.57;11.45;;;22.20;92.10;;;;;;5069464;28;20052;-68
2021/06/02 09:20:53;;;;;;;13.30;12.10;;;22.30;92.00;;;;;;5069501;28;20068;-68
2021/06/02 09:23:41;;;;;;;11.77;10.82;;;22.40;91.50;;;;;;5066072;28;20160;-68
2021/06/02 09:26:24;;;;;;;11.50;10.70;;;22.50;91.10;;;;;;5059916;28;20049;-68
2021/06/02 09:29:04;;;;;;;11.95;10.95;;;22.70;91.10;;;;;;5070067;28;20126;-68
2021/06/02 09:31:35;;;;;;;11.32;10.60;;;22.90;90.10;;;;;;5069006;28;20079;-68
2021/06/02 09:34:26;;;;;;;11.80;10.90;;;23.00;90.10;;;;;;5066231;28;20052;-67
2021/06/02 09:37:06;;;;;;;11.38;10.38;;;23.10;89.10;;;;;;5068206;28;20078;-67
2021/06/02 09:39:44;;;;;;;11.98;10.98;;;23.30;87.40;;;;;;5070168;28;20174;-68
2021/06/02 09:42:26;;;;;;;11.65;10.75;;;23.30;87.70;;;;;;5069323;28;20461;-68
2021/06/02 09:45:12;;;;;;;12.55;11.32;;;23.50;86.90;;;;;;5069482;28;20068;-68
2021/06/02 09:47:54;;;;;;;14.80;13.60;;;23.80;85.60;;;;;;5054578;28;20060;-68
2021/06/02 09:50:35;;;;;;;11.63;10.77;;;24.00;84.60;;;;;;5064820;28;20048;-68
2021/06/02 09:53:04;;;;;;;12.55;11.60;;;24.10;83.60;;;;;;5067225;28;20477;-68
2021/06/02 09:55:38;;;;;;;12.07;11.18;;;24.30;83.60;;;;;;5069144;28;20056;-68
2021/06/02 09:58:05;;;;;;;12.30;11.20;;;24.60;81.90;;;;;;5063589;28;20072;-68
2021/06/02 10:00:53;;;;;;;12.10;11.10;;;24.80;80.70;;;;;;5067927;28;20040;-68
2021/06/02 10:03:28;;;;;;;11.73;10.73;;;25.10;77.80;;;;;;5069783;28;20052;-67
2021/06/02 10:05:55;;;;;;;11.80;10.95;;;25.30;77.10;;;;;;5063250;28;20049;-68
2021/06/02 10:08:31;;;;;;;11.30;10.43;;;25.50;76.50;;;;;;5049057;28;20360;-68
2021/06/02 10:11:11;;;;;;;11.98;11.07;;;25.70;75.50;;;;;;5061085;28;20618;-68
2021/06/02 10:13:39;;;;;;;12.60;11.60;;;25.90;75.60;;;;;;5056809;28;20051;-68
2021/06/02 10:16:09;;;;;;;12.15;10.90;;;26.20;74.90;;;;;;5066513;28;20144;-68
2021/06/02 10:18:39;;;;;;;12.15;11.05;;;26.20;73.90;;;;;;5069383;28;20064;-67
2021/06/02 10:21:07;;;;;;;12.00;10.80;;;26.30;73.70;;;;;;5069103;28;20071;-68
2021/06/02 10:23:39;;;;;;;11.40;10.60;;;26.50;73.10;;;;;;5057765;28;20036;-68
2021/06/02 10:26:08;;;;;;;12.13;10.95;;;26.80;72.00;;;;;;5066459;28;20667;-68
2021/06/02 10:28:36;;;;;;;12.07;11.18;;;27.00;69.60;;;;;;5069323;28;20057;-68
2021/06/02 10:31:06;;;;;;;12.32;11.38;;;27.50;70.00;;;;;;5070143;28;20063;-68
2021/06/02 10:33:34;;;;;;;13.25;12.15;;;28.10;69.80;;;;;;5068342;28;20139;-68
2021/06/02 10:36:04;;;;;;;11.50;10.50;;;28.60;66.80;;;;;;5068338;28;20461;-68
2021/06/02 10:38:51;;;;;;;11.90;10.95;;;28.60;65.40;;;;;;5063777;28;20068;-68
2021/06/02 10:41:45;;;;;;;12.07;11.18;;;28.70;64.60;;;;;;5066850;28;20050;-68
2021/06/02 10:44:21;;;;;;;11.30;10.50;;;28.80;64.20;;;;;;5061005;28;20327;-68
2021/06/02 10:46:50;;;;;;;10.77;10.07;;;29.10;63.60;;;;;;5061897;28;20071;-68
2021/06/02 10:49:27;;;;;;;13.20;12.13;;;29.40;63.30;;;;;;5066464;28;20063;-68
2021/06/02 10:51:56;;;;;;;14.80;13.52;;;29.40;62.50;;;;;;5066344;28;20053;-68
2021/06/02 10:54:40;;;;;;;11.30;10.50;;;29.30;62.40;;;;;;5067995;28;20044;-68
2021/06/02 10:57:14;;;;;;;28.65;14.38;;;28.80;61.60;;;;;;5070739;28;20548;-68
2021/06/02 10:59:43;;;;;;;22.63;12.65;;;28.40;61.60;;;;;;5069242;28;20075;-68
2021/06/02 11:02:13;;;;;;;29.52;15.70;;;28.20;60.60;;;;;;5068676;28;20506;-68
2021/06/02 11:04:56;;;;;;;28.65;14.07;;;28.30;61.80;;;;;;5051400;28;20068;-68
2021/06/02 11:07:33;;;;;;;15.15;11.25;;;28.50;61.90;;;;;;5067408;28;20094;-68
2021/06/02 11:10:01;;;;;;;11.48;10.32;;;28.60;62.00;;;;;;5070781;28;20388;-68
2021/06/02 11:12:49;;;;;;;11.65;10.50;;;28.60;61.30;;;;;;5061785;28;20437;-68
2021/06/02 11:15:23;;;;;;;11.00;10.30;;;28.60;60.40;;;;;;5069507;28;20052;-68
2021/06/02 11:18:10;;;;;;;11.27;10.48;;;28.80;60.80;;;;;;5071414;28;20068;-68
2021/06/02 11:20:50;;;;;;;10.95;10.25;;;29.10;61.40;;;;;;5068947;28;20052;-68
2021/06/02 11:23:28;;;;;;;10.55;9.80;;;29.40;58.90;;;;;;5053401;28;20059;-68
2021/06/02 11:26:25;;;;;;;10.93;10.02;;;29.20;55.80;;;;;;5055507;28;20044;-68
2021/06/02 11:28:54;;;;;;;11.18;10.10;;;29.60;55.60;;;;;;5065709;28;20145;-68
2021/06/02 11:31:21;;;;;;;10.27;9.57;;;29.60;54.90;;;;;;5061381;28;20056;-68
2021/06/02 11:33:50;;;;;;;10.00;9.38;;;29.90;54.00;;;;;;5071755;28;20076;-68
2021/06/02 11:36:17;;;;;;;10.38;9.60;;;30.20;53.10;;;;;;5070538;28;20044;-68
2021/06/02 11:38:46;;;;;;;10.45;9.75;;;30.30;53.80;;;;;;5053785;28;20120;-68
2021/06/02 11:41:14;;;;;;;11.05;10.10;;;30.50;54.70;;;;;;5071550;28;20072;-68
2021/06/02 11:43:59;;;;;;;11.07;9.93;;;30.70;56.00;;;;;;5072453;28;20052;-68
2021/06/02 11:46:50;;;;;;;11.48;10.50;;;31.00;56.10;;;;;;5073060;28;20052;-68
2021/06/02 11:49:31;;;;;;;11.40;10.50;;;31.10;56.10;;;;;;5072640;28;20474;-68
2021/06/02 11:52:07;;;;;;;11.45;10.65;;;31.40;55.20;;;;;;5063193;28;20088;-68
2021/06/02 11:54:57;;;;;;;11.90;10.70;;;31.50;54.50;;;;;;5060844;28;20088;-68
2021/06/02 11:57:38;;;;;;;11.63;10.63;;;31.40;53.40;;;;;;5068490;28;20068;-68
2021/06/02 12:00:36;;;;;;;10.77;10.07;;;31.20;52.00;;;;;;5057584;28;20076;-68
2021/06/02 12:03:09;;;;;;;10.00;9.30;;;31.00;50.80;;;;;;5058536;28;20625;-68
2021/06/02 12:05:39;;;;;;;10.35;9.57;;;30.90;51.20;;;;;;5053254;28;20080;-68
2021/06/02 12:08:16;;;;;;;9.93;9.23;;;30.80;50.90;;;;;;5071853;28;20056;-68
2021/06/02 12:10:56;;;;;;;11.35;10.55;;;30.90;50.70;;;;;;5071886;28;20529;-68
2021/06/02 12:13:28;;;;;;;11.48;10.65;;;31.30;51.40;;;;;;5072593;28;20464;-68
2021/06/02 12:16:03;;;;;;;11.65;10.75;;;32.00;50.60;;;;;;5072900;28;20037;-68
2021/06/02 12:18:35;;;;;;;11.05;10.20;;;32.20;50.90;;;;;;5062951;28;20048;-68
2021/06/02 12:21:27;;;;;;;11.10;10.40;;;32.70;51.20;;;;;;5056646;28;20426;-68
2021/06/02 12:24:01;;;;;;;11.45;10.55;;;32.90;51.20;;;;;;5063626;28;20119;-69
2021/06/02 12:26:35;;;;;;;11.70;10.80;;;33.30;51.50;;;;;;5070843;28;20082;-68
2021/06/02 12:29:07;;;;;;;10.85;10.15;;;33.20;49.90;;;;;;5071257;28;20415;-68
2021/06/02 12:31:39;;;;;;;10.63;9.93;;;33.80;49.40;;;;;;5069509;28;20117;-68
2021/06/02 12:34:19;;;;;;;10.52;9.73;;;33.90;47.40;;;;;;5056619;28;20202;-68
2021/06/02 12:36:48;;;;;;;10.77;10.07;;;34.10;48.20;;;;;;5065358;28;20551;-68
2021/06/02 12:39:17;;;;;;;12.07;10.80;;;34.10;47.10;;;;;;5069115;28;20365;-68
2021/06/02 12:41:47;;;;;;;10.85;10.00;;;34.10;46.80;;;;;;5070865;28;20131;-66
2021/06/02 12:44:15;;;;;;;11.50;10.50;;;33.90;46.60;;;;;;5071786;28;20064;-66
2021/06/02 12:47:08;;;;;;;10.63;9.80;;;33.60;46.40;;;;;;5072100;28;20131;-66
2021/06/02 12:49:43;;;;;;;10.55;9.75;;;33.30;46.70;;;;;;5060337;28;20488;-66
2021/06/02 12:52:24;;;;;;;10.90;10.10;;;33.10;47.30;;;;;;5067488;28;20053;-66
2021/06/02 12:54:53;;;;;;;10.10;9.40;;;33.70;46.80;;;;;;5069002;28;20556;-67
2021/06/02 12:57:24;;;;;;;10.75;9.73;;;34.20;46.40;;;;;;5060075;28;20418;-67
2021/06/02 12:59:51;;;;;;;10.57;9.77;;;34.80;46.00;;;;;;5061740;28;20037;-67
2021/06/02 13:02:20;;;;;;;10.82;10.02;;;35.20;45.70;;;;;;5067914;28;20084;-67
2021/06/02 13:04:48;;;;;;;10.57;9.63;;;35.40;45.80;;;;;;5070274;28;20343;-67
2021/06/02 13:07:33;;;;;;;10.05;9.25;;;35.40;45.80;;;;;;5062073;28;20071;-66
2021/06/02 13:10:04;;;;;;;10.32;9.63;;;35.30;45.30;;;;;;5067089;28;20514;-66
2021/06/02 13:12:32;;;;;;;10.38;9.55;;;35.00;45.20;;;;;;5069565;28;20045;-67
2021/06/02 13:14:59;;;;;;;10.30;9.30;;;35.10;46.00;;;;;;5071110;28;20474;-67
2021/06/02 13:17:39;;;;;;;10.43;9.70;;;35.10;45.40;;;;;;5069764;28;20063;-66
2021/06/02 13:20:07;;;;;;;10.27;9.45;;;35.20;45.20;;;;;;5070635;28;20470;-67
2021/06/02 13:22:40;;;;;;;11.27;10.27;;;35.50;45.20;;;;;;5064562;28;20389;-67
2021/06/02 13:25:08;;;;;;;10.70;10.00;;;36.00;45.10;;;;;;5067386;28;20044;-67